createdAt,value
2023-05-21T00:00:41.866Z,15.20
2023-05-21T00:03:14.302Z,14.86
2023-05-21T00:05:45.366Z,14.84
2023-05-21T00:08:14.239Z,15.24
2023-05-21T00:10:42.638Z,15.20
2023-05-21T00:13:10.969Z,15.07
2023-05-21T00:15:39.606Z,14.96
2023-05-21T00:18:08.068Z,14.92
2023-05-21T00:20:37.328Z,14.84
2023-05-21T00:23:06.982Z,14.88
2023-05-21T00:25:35.504Z,14.90
2023-05-21T00:28:04.150Z,14.86
2023-05-21T00:30:32.352Z,14.88
2023-05-21T00:33:02.882Z,15.03
2023-05-21T00:35:31.409Z,14.99
2023-05-21T00:38:00.560Z,14.95
2023-05-21T00:40:30.189Z,14.93
2023-05-21T00:42:58.519Z,14.86
2023-05-21T00:45:26.786Z,14.97
2023-05-21T00:47:55.938Z,15.00
2023-05-21T00:50:24.913Z,15.00
2023-05-21T00:52:53.468Z,14.97
2023-05-21T00:55:21.890Z,14.97
2023-05-21T00:57:51.986Z,14.98
2023-05-21T01:00:21.050Z,14.95
2023-05-21T01:02:50.098Z,14.97
2023-05-21T01:05:18.533Z,15.03
2023-05-21T01:07:47.008Z,15.03
2023-05-21T01:10:15.619Z,15.03
2023-05-21T01:12:45.778Z,14.98
2023-05-21T01:15:15.736Z,15.06
2023-05-21T01:17:46.254Z,15.13
2023-05-21T01:20:18.357Z,15.06
2023-05-21T01:22:54.317Z,15.14
2023-05-21T01:25:23.257Z,15.14
2023-05-21T01:27:51.728Z,15.21
2023-05-21T01:30:22.181Z,15.26
2023-05-21T01:32:58.082Z,15.27
2023-05-21T01:35:31.667Z,15.31
2023-05-21T01:38:08.435Z,15.24
2023-05-21T01:40:41.235Z,15.20
2023-05-21T01:43:10.809Z,15.19
2023-05-21T01:45:42.065Z,15.07
2023-05-21T01:48:12.723Z,15.05
2023-05-21T01:50:42.981Z,15.03
2023-05-21T01:53:12.922Z,15.09
2023-05-21T01:55:42.252Z,15.10
2023-05-21T01:58:11.177Z,15.27
2023-05-21T02:00:40.177Z,15.18
2023-05-21T02:03:09.066Z,15.18
2023-05-21T02:05:37.897Z,15.18
2023-05-21T02:08:08.665Z,15.08
2023-05-21T02:10:38.465Z,15.02
2023-05-21T02:13:06.759Z,14.74
2023-05-21T02:15:35.669Z,15.03
2023-05-21T02:18:04.697Z,15.04
2023-05-21T02:20:33.412Z,14.36
2023-05-21T02:23:01.726Z,14.82
2023-05-21T02:25:30.020Z,14.08
2023-05-21T02:27:59.776Z,14.75
2023-05-21T02:30:28.233Z,14.77
2023-05-21T02:32:59.024Z,14.80
2023-05-21T02:35:27.617Z,14.75
2023-05-21T02:37:59.397Z,14.70
2023-05-21T02:40:27.896Z,14.71
2023-05-21T02:42:56.108Z,14.49
2023-05-21T02:45:26.020Z,14.63
2023-05-21T02:47:54.255Z,14.55
2023-05-21T02:50:23.528Z,14.54
2023-05-21T02:52:52.407Z,14.47
2023-05-21T02:55:20.928Z,14.48
2023-05-21T02:57:49.614Z,14.36
2023-05-21T03:00:18.242Z,14.36
2023-05-21T03:02:48.174Z,14.37
2023-05-21T03:05:16.611Z,14.35
2023-05-21T03:07:44.764Z,14.25
2023-05-21T03:10:13.009Z,14.17
2023-05-21T03:12:41.263Z,14.32
2023-05-21T03:15:11.102Z,14.35
2023-05-21T03:17:39.615Z,14.29
2023-05-21T03:20:16.474Z,14.33
2023-05-21T03:22:45.155Z,14.35
2023-05-21T03:25:13.806Z,14.12
2023-05-21T03:27:42.172Z,14.32
2023-05-21T03:30:11.168Z,14.31
2023-05-21T03:32:41.577Z,14.18
2023-05-21T03:35:11.922Z,13.99
2023-05-21T03:37:40.157Z,14.29
2023-05-21T03:40:09.652Z,14.24
2023-05-21T03:42:37.821Z,14.25
2023-05-21T03:45:06.662Z,14.30
2023-05-21T03:47:36.177Z,14.33
2023-05-21T03:50:05.853Z,14.24
2023-05-21T03:52:35.559Z,14.38
2023-05-21T03:55:03.919Z,14.41
2023-05-21T03:57:32.305Z,14.46
2023-05-21T04:00:00.925Z,14.47
2023-05-21T04:02:29.271Z,14.56
2023-05-21T04:04:57.601Z,14.59
2023-05-21T04:07:27.315Z,14.45
2023-05-21T04:09:57.026Z,14.81
2023-05-21T04:12:25.341Z,14.89
2023-05-21T04:14:53.794Z,14.95
2023-05-21T04:17:22.115Z,15.13
2023-05-21T04:19:50.426Z,15.28
2023-05-21T04:22:18.608Z,15.35
2023-05-21T04:24:48.979Z,15.60
2023-05-21T04:27:19.403Z,15.26
2023-05-21T04:29:50.617Z,15.84
2023-05-21T04:32:19.159Z,15.77
2023-05-21T04:34:47.438Z,15.68
2023-05-21T04:37:18.023Z,15.64
2023-05-21T04:39:47.056Z,15.86
2023-05-21T04:42:15.473Z,15.81
2023-05-21T04:44:45.162Z,16.18
2023-05-21T04:47:15.114Z,16.30
2023-05-21T04:49:43.327Z,16.25
2023-05-21T04:52:12.014Z,16.24
2023-05-21T04:54:42.195Z,16.38
2023-05-21T04:57:10.517Z,15.50
2023-05-21T04:59:39.414Z,16.76
2023-05-21T05:02:09.059Z,16.99
2023-05-21T05:04:37.256Z,17.21
2023-05-21T05:07:05.738Z,17.44
2023-05-21T05:09:34.052Z,17.54
2023-05-21T05:12:02.337Z,17.65
2023-05-21T05:14:30.635Z,17.83
2023-05-21T05:17:00.936Z,17.99
2023-05-21T05:19:32.140Z,18.07
2023-05-21T05:22:00.522Z,17.93
2023-05-21T05:24:28.773Z,18.44
2023-05-21T05:26:56.992Z,18.44
2023-05-21T05:29:25.283Z,18.82
2023-05-21T05:31:53.518Z,18.99
2023-05-21T05:34:21.816Z,19.16
2023-05-21T05:36:51.650Z,19.17
2023-05-21T05:39:19.968Z,18.97
2023-05-21T05:41:48.419Z,19.01
2023-05-21T05:44:16.713Z,19.18
2023-05-21T05:46:45.205Z,19.33
2023-05-21T05:49:13.833Z,19.40
2023-05-21T05:51:42.405Z,19.37
2023-05-21T05:54:12.043Z,19.43
2023-05-21T05:56:40.267Z,19.65
2023-05-21T05:59:08.574Z,19.74
2023-05-21T06:01:36.932Z,19.77
2023-05-21T06:04:05.400Z,19.71
2023-05-21T06:06:34.926Z,19.58
2023-05-21T06:09:03.229Z,19.44
2023-05-21T06:11:32.901Z,19.58
2023-05-21T06:14:02.178Z,19.76
2023-05-21T06:16:31.594Z,19.91
2023-05-21T06:19:00.170Z,20.16
2023-05-21T06:21:28.730Z,20.32
2023-05-21T06:23:57.118Z,20.48
2023-05-21T06:26:25.395Z,20.43
2023-05-21T06:28:55.228Z,20.61
2023-05-21T06:31:23.463Z,20.73
2023-05-21T06:33:52.132Z,20.83
2023-05-21T06:36:20.515Z,20.90
2023-05-21T06:38:48.726Z,21.08
2023-05-21T06:41:17.163Z,21.24
2023-05-21T06:43:45.448Z,21.36
2023-05-21T06:46:15.116Z,20.83
2023-05-21T06:48:43.806Z,21.17
2023-05-21T06:51:12.043Z,21.15
2023-05-21T06:53:40.273Z,20.96
2023-05-21T06:56:08.879Z,20.74
2023-05-21T06:58:37.134Z,20.94
2023-05-21T07:01:05.512Z,20.94
2023-05-21T07:03:35.313Z,20.85
2023-05-21T07:06:03.637Z,20.82
2023-05-21T07:08:31.913Z,20.77
2023-05-21T07:11:00.243Z,20.68
2023-05-21T07:13:28.601Z,20.66
2023-05-21T07:15:56.909Z,20.77
2023-05-21T07:18:25.126Z,20.92
2023-05-21T07:20:55.042Z,21.05
2023-05-21T07:23:23.506Z,21.11
2023-05-21T07:25:52.100Z,21.20
2023-05-21T07:28:20.586Z,21.48
2023-05-21T07:30:48.845Z,21.61
2023-05-21T07:33:17.443Z,21.63
2023-05-21T07:35:45.810Z,21.91
2023-05-21T07:38:15.584Z,22.11
2023-05-21T07:40:43.811Z,22.23
2023-05-21T07:43:12.037Z,22.22
2023-05-21T07:45:40.385Z,22.13
2023-05-21T07:48:08.743Z,22.11
2023-05-21T07:50:37.906Z,22.27
2023-05-21T07:53:06.216Z,22.33
2023-05-21T07:55:36.169Z,22.52
2023-05-21T07:58:04.570Z,22.44
2023-05-21T08:00:44.650Z,22.55
2023-05-21T08:03:13.297Z,22.67
2023-05-21T08:05:41.957Z,22.58
2023-05-21T08:08:10.174Z,22.52
2023-05-21T08:10:39.848Z,22.41
2023-05-21T08:13:08.202Z,22.26
2023-05-21T08:15:36.689Z,22.19
2023-05-21T08:18:05.860Z,22.18
2023-05-21T08:20:34.549Z,22.22
2023-05-21T08:23:02.940Z,22.37
2023-05-21T08:25:31.440Z,22.44
2023-05-21T08:28:01.258Z,22.57
2023-05-21T08:30:29.534Z,22.77
2023-05-21T08:32:57.861Z,22.92
2023-05-21T08:35:26.275Z,23.07
2023-05-21T08:37:54.619Z,23.09
2023-05-21T08:40:22.950Z,22.91
2023-05-21T08:42:51.643Z,22.80
2023-05-21T08:45:23.639Z,22.61
2023-05-21T08:47:57.633Z,22.45
2023-05-21T08:50:28.922Z,22.47
2023-05-21T08:52:59.123Z,22.53
2023-05-21T08:55:27.733Z,22.46
2023-05-21T08:57:56.183Z,22.37
2023-05-21T09:00:25.938Z,22.32
2023-05-21T09:02:56.420Z,22.36
2023-05-21T09:05:26.584Z,22.28
2023-05-21T09:08:02.123Z,22.11
2023-05-21T09:10:35.517Z,22.31
2023-05-21T09:13:04.426Z,22.41
2023-05-21T09:15:34.247Z,22.60
2023-05-21T09:18:02.900Z,22.53
2023-05-21T09:20:31.963Z,22.59
2023-05-21T09:23:04.587Z,22.40
2023-05-21T09:25:33.115Z,22.66
2023-05-21T09:28:01.418Z,22.77
2023-05-21T09:30:31.306Z,22.79
2023-05-21T09:33:03.653Z,22.95
2023-05-21T09:35:32.143Z,23.25
2023-05-21T09:38:02.054Z,23.46
2023-05-21T09:40:30.340Z,23.77
2023-05-21T09:42:58.636Z,23.76
2023-05-21T09:45:28.299Z,23.74
2023-05-21T09:47:57.320Z,23.72
2023-05-21T09:50:28.406Z,23.55
2023-05-21T09:52:58.167Z,23.40
2023-05-21T09:55:27.816Z,23.03
2023-05-21T09:57:56.381Z,23.28
2023-05-21T10:00:27.559Z,23.60
2023-05-21T10:02:56.834Z,23.79
2023-05-21T10:05:28.976Z,24.07
2023-05-21T10:08:02.077Z,24.09
2023-05-21T10:10:31.978Z,24.23
2023-05-21T10:13:02.575Z,24.31
2023-05-21T10:15:37.744Z,24.40
2023-05-21T10:18:06.456Z,24.39
2023-05-21T10:20:38.156Z,24.35
2023-05-21T10:23:06.917Z,24.61
2023-05-21T10:25:36.337Z,24.68
2023-05-21T10:28:05.011Z,24.73
2023-05-21T10:30:33.681Z,24.83
2023-05-21T10:33:03.475Z,24.99
2023-05-21T10:35:33.666Z,25.06
2023-05-21T10:38:05.606Z,25.19
2023-05-21T10:40:34.333Z,25.34
2023-05-21T10:43:32.675Z,25.52
2023-05-21T10:46:20.946Z,25.51
2023-05-21T10:49:02.356Z,25.20
2023-05-21T10:51:43.321Z,24.83
2023-05-21T10:54:39.985Z,24.96
2023-05-21T10:57:24.319Z,24.64
2023-05-21T10:59:53.816Z,24.52
2023-05-21T11:02:22.904Z,24.37
2023-05-21T11:04:59.877Z,24.36
2023-05-21T11:07:53.080Z,24.40
2023-05-21T11:10:39.761Z,24.46
2023-05-21T11:13:14.670Z,24.51
2023-05-21T11:16:08.211Z,24.58
2023-05-21T11:19:06.716Z,24.83
2023-05-21T11:21:37.867Z,25.24
2023-05-21T11:24:11.282Z,25.08
2023-05-21T11:27:05.076Z,24.73
2023-05-21T11:29:48.909Z,24.45
2023-05-21T11:32:20.848Z,24.22
2023-05-21T11:34:50.445Z,24.20
2023-05-21T11:37:30.465Z,24.78
2023-05-21T11:40:17.127Z,25.02
2023-05-21T11:42:52.007Z,24.94
2023-05-21T11:45:21.773Z,24.57
2023-05-21T11:47:51.616Z,24.83
2023-05-21T11:50:20.858Z,25.05
2023-05-21T11:52:50.612Z,24.55
2023-05-21T11:55:23.709Z,25.14
2023-05-21T11:57:55.395Z,25.50
2023-05-21T12:00:23.854Z,25.42
2023-05-21T12:02:53.736Z,25.62
2023-05-21T12:05:23.154Z,25.60
2023-05-21T12:07:51.568Z,25.09
2023-05-21T12:10:24.214Z,25.21
2023-05-21T12:12:57.018Z,25.58
2023-05-21T12:15:27.586Z,26.00
2023-05-21T12:17:57.226Z,26.17
2023-05-21T12:20:28.314Z,25.95
2023-05-21T12:22:59.062Z,26.00
2023-05-21T12:25:27.794Z,25.99
2023-05-21T12:27:58.950Z,25.81
2023-05-21T12:30:27.575Z,25.40
2023-05-21T12:32:59.752Z,25.22
2023-05-21T12:35:28.231Z,25.25
2023-05-21T12:37:56.868Z,25.50
2023-05-21T12:40:38.432Z,26.05
2023-05-21T12:43:09.038Z,26.67
2023-05-21T12:45:39.591Z,27.17
2023-05-21T12:50:40.610Z,28.02
2023-05-21T12:53:10.882Z,27.88
2023-05-21T12:55:39.121Z,28.00
2023-05-21T12:58:09.538Z,27.75
2023-05-21T13:00:38.660Z,27.61
2023-05-21T13:03:07.487Z,27.82
2023-05-21T13:05:36.396Z,27.41
2023-05-21T13:08:04.872Z,27.42
2023-05-21T13:10:33.073Z,27.29
2023-05-21T13:13:02.095Z,27.42
2023-05-21T13:15:31.768Z,27.75
2023-05-21T13:18:01.484Z,28.12
2023-05-21T13:20:30.289Z,28.35
2023-05-21T13:22:58.670Z,28.68
2023-05-21T13:25:29.919Z,28.99
2023-05-21T13:27:59.368Z,29.00
2023-05-21T13:30:27.782Z,29.10
2023-05-21T13:32:57.611Z,28.77
2023-05-21T13:35:26.557Z,29.09
2023-05-21T13:37:55.141Z,28.90
2023-05-21T13:40:23.968Z,28.57
2023-05-21T13:42:52.508Z,28.69
2023-05-21T13:45:24.462Z,28.73
2023-05-21T13:47:52.944Z,28.91
2023-05-21T13:50:22.843Z,29.08
2023-05-21T13:52:51.239Z,29.20
2023-05-21T13:55:19.468Z,29.40
2023-05-21T13:57:47.831Z,29.33
2023-05-21T14:00:16.475Z,29.34
2023-05-21T14:02:45.511Z,29.58
2023-05-21T14:05:14.241Z,29.60
2023-05-21T14:07:43.848Z,29.78
2023-05-21T14:10:13.686Z,29.80
2023-05-21T14:12:42.323Z,29.68
2023-05-21T14:15:11.251Z,29.67
2023-05-21T14:17:40.883Z,29.66
2023-05-21T14:20:10.716Z,30.43
2023-05-21T14:22:39.448Z,30.88
2023-05-21T14:25:09.953Z,31.14
2023-05-21T14:27:39.031Z,31.57
2023-05-21T14:30:08.475Z,31.98
2023-05-21T14:32:36.976Z,32.22
2023-05-21T14:35:06.456Z,32.44
2023-05-21T14:37:34.848Z,32.31
2023-05-21T14:40:03.206Z,32.28
2023-05-21T14:42:32.967Z,31.87
2023-05-21T14:45:17.076Z,31.48
2023-05-21T14:47:48.076Z,31.11
2023-05-21T14:50:17.762Z,30.98
2023-05-21T14:52:46.140Z,31.01
2023-05-21T14:55:16.889Z,30.63
2023-05-21T14:57:46.854Z,30.03
2023-05-21T15:00:15.753Z,29.30
2023-05-21T15:02:44.339Z,29.52
2023-05-21T15:05:12.705Z,29.85
2023-05-21T15:07:41.022Z,29.98
2023-05-21T15:10:10.779Z,29.86
2023-05-21T15:12:39.147Z,29.63
2023-05-21T15:15:10.186Z,29.38
2023-05-21T15:17:38.513Z,29.10
2023-05-21T15:20:09.599Z,29.06
2023-05-21T15:22:38.426Z,28.75
2023-05-21T15:25:07.707Z,28.49
2023-05-21T15:27:36.355Z,27.91
2023-05-21T15:30:05.253Z,27.92
2023-05-21T15:32:34.954Z,27.48
2023-05-21T15:35:03.367Z,27.05
2023-05-21T15:37:33.204Z,26.83
2023-05-21T15:40:01.598Z,26.64
2023-05-21T15:42:32.009Z,26.68
2023-05-21T15:45:00.485Z,26.88
2023-05-21T15:47:28.908Z,27.49
2023-05-21T15:50:00.518Z,27.90
2023-05-21T15:52:28.847Z,28.88
2023-05-21T15:54:57.067Z,29.51
2023-05-21T15:57:25.318Z,30.26
2023-05-21T15:59:54.033Z,29.32
2023-05-21T16:02:22.274Z,28.80
2023-05-21T16:04:52.268Z,29.29
2023-05-21T16:07:24.704Z,28.65
2023-05-21T16:09:52.985Z,27.32
2023-05-21T16:12:21.282Z,26.51
2023-05-21T16:14:51.161Z,25.71
2023-05-21T16:17:19.890Z,25.39
2023-05-21T16:19:48.530Z,24.99
2023-05-21T16:22:17.300Z,24.69
2023-05-21T16:24:47.043Z,24.34
2023-05-21T16:27:15.329Z,24.32
2023-05-21T16:29:43.932Z,24.29
2023-05-21T16:32:14.229Z,24.12
2023-05-21T16:34:42.984Z,24.07
2023-05-21T16:37:11.437Z,24.19
2023-05-21T16:39:39.849Z,25.74
2023-05-21T16:42:09.500Z,27.62
2023-05-21T16:44:38.690Z,28.81
2023-05-21T16:47:07.146Z,29.24
2023-05-21T16:49:35.351Z,29.84
2023-05-21T16:52:04.218Z,30.49
2023-05-21T16:54:32.649Z,31.75
2023-05-21T16:57:01.294Z,31.76
2023-05-21T16:59:31.317Z,31.07
2023-05-21T17:01:59.769Z,29.76
2023-05-21T17:04:28.179Z,28.41
2023-05-21T17:06:56.530Z,27.55
2023-05-21T17:09:24.958Z,26.65
2023-05-21T17:11:53.163Z,26.18
2023-05-21T17:14:33.188Z,25.92
2023-05-21T17:17:03.794Z,25.33
2023-05-21T17:19:32.318Z,25.13
2023-05-21T17:22:00.606Z,24.98
2023-05-21T17:24:28.855Z,24.84
2023-05-21T17:26:57.194Z,24.70
2023-05-21T17:29:25.510Z,24.24
2023-05-21T17:31:53.876Z,23.99
2023-05-21T17:34:26.301Z,23.84
2023-05-21T17:36:55.508Z,23.54
2023-05-21T17:39:24.089Z,23.66
2023-05-21T17:41:54.572Z,23.54
2023-05-21T17:44:22.977Z,22.94
2023-05-21T17:46:52.092Z,23.09
2023-05-21T17:49:20.872Z,23.01
2023-05-21T17:51:50.807Z,22.88
2023-05-21T17:54:20.188Z,22.86
2023-05-21T17:56:48.502Z,22.71
2023-05-21T17:59:17.310Z,22.36
2023-05-21T18:01:45.589Z,22.49
2023-05-21T18:04:14.039Z,22.37
2023-05-21T18:06:42.360Z,22.18
2023-05-21T18:09:14.506Z,22.00
2023-05-21T18:11:44.616Z,21.85
2023-05-21T18:14:13.028Z,21.74
2023-05-21T18:16:42.169Z,21.68
2023-05-21T18:19:10.845Z,21.59
2023-05-21T18:21:39.435Z,21.49
2023-05-21T18:24:08.509Z,21.40
2023-05-21T18:26:38.281Z,21.21
2023-05-21T18:29:06.653Z,19.87
2023-05-21T18:31:35.039Z,20.99
2023-05-21T18:34:03.590Z,21.01
2023-05-21T18:36:38.573Z,20.91
2023-05-21T18:39:07.919Z,20.83
2023-05-21T18:41:38.380Z,20.71
2023-05-21T18:44:07.327Z,20.61
2023-05-21T18:46:35.836Z,20.28
2023-05-21T18:49:04.510Z,20.37
2023-05-21T18:51:32.933Z,20.34
2023-05-21T18:54:01.201Z,20.34
2023-05-21T18:56:29.582Z,20.25
2023-05-21T18:58:59.465Z,20.15
2023-05-21T19:01:27.961Z,20.07
2023-05-21T19:03:56.196Z,19.97
2023-05-21T19:06:25.761Z,19.93
2023-05-21T19:08:54.353Z,19.71
2023-05-21T19:11:23.802Z,19.93
2023-05-21T19:13:52.406Z,19.95
2023-05-21T19:16:22.284Z,19.84
2023-05-21T19:18:50.741Z,19.77
2023-05-21T19:21:20.033Z,19.74
2023-05-21T19:23:53.724Z,19.61
2023-05-21T19:26:23.534Z,19.48
2023-05-21T19:28:53.914Z,19.53
2023-05-21T19:31:25.429Z,19.45
2023-05-21T19:33:54.112Z,19.41
2023-05-21T19:36:23.054Z,19.33
2023-05-21T19:38:51.965Z,19.32
2023-05-21T19:41:21.721Z,19.28
2023-05-21T19:43:50.354Z,19.09
2023-05-21T19:46:20.485Z,19.07
2023-05-21T19:48:52.110Z,19.08
2023-05-21T19:51:20.457Z,19.11
2023-05-21T19:53:48.731Z,19.04
2023-05-21T19:56:17.717Z,18.92
2023-05-21T19:58:48.160Z,18.86
2023-05-21T20:01:17.513Z,18.69
2023-05-21T20:03:46.393Z,18.82
2023-05-21T20:06:19.181Z,18.75
2023-05-21T20:08:47.840Z,18.74
2023-05-21T20:11:16.197Z,18.72
2023-05-21T20:13:48.633Z,18.72
2023-05-21T20:16:18.563Z,18.76
2023-05-21T20:18:47.503Z,18.77
2023-05-21T20:21:18.846Z,18.80
2023-05-21T20:23:47.378Z,18.64
2023-05-21T20:26:16.416Z,18.52
2023-05-21T20:28:44.853Z,18.43
2023-05-21T20:31:13.167Z,18.47
2023-05-21T20:33:42.128Z,18.53
2023-05-21T20:36:10.679Z,18.47
2023-05-21T20:38:42.363Z,18.08
2023-05-21T20:41:10.740Z,18.31
2023-05-21T20:43:39.065Z,18.43
2023-05-21T20:46:07.987Z,18.41
2023-05-21T20:48:38.019Z,18.29
2023-05-21T20:51:06.702Z,18.31
2023-05-21T20:53:34.944Z,18.24
2023-05-21T20:56:08.350Z,18.11
2023-05-21T20:58:36.702Z,18.21
2023-05-21T21:01:05.064Z,18.22
2023-05-21T21:03:34.420Z,17.79
2023-05-21T21:06:03.305Z,17.98
2023-05-21T21:08:31.555Z,17.98
2023-05-21T21:10:59.797Z,17.93
2023-05-21T21:13:29.466Z,17.88
2023-05-21T21:15:57.751Z,17.81
2023-05-21T21:18:26.010Z,17.85
2023-05-21T21:20:54.451Z,17.85
2023-05-21T21:23:24.591Z,17.79
2023-05-21T21:25:52.970Z,17.73
2023-05-21T21:28:21.213Z,17.74
2023-05-21T21:30:51.201Z,17.68
2023-05-21T21:33:19.611Z,17.64
2023-05-21T21:35:47.942Z,17.66
2023-05-21T21:38:16.278Z,17.20
2023-05-21T21:40:44.497Z,17.59
2023-05-21T21:43:13.009Z,17.56
2023-05-21T21:45:41.464Z,17.44
2023-05-21T21:48:11.485Z,17.51
2023-05-21T21:50:40.047Z,17.53
2023-05-21T21:53:10.058Z,17.43
2023-05-21T21:55:38.251Z,17.37
2023-05-21T21:58:06.999Z,17.14
2023-05-21T22:00:35.475Z,17.00
2023-05-21T22:03:03.785Z,17.27
2023-05-21T22:05:34.193Z,17.27
2023-05-21T22:08:03.300Z,17.19
2023-05-21T22:10:33.647Z,17.24
2023-05-21T22:13:02.870Z,17.23
2023-05-21T22:15:32.407Z,17.16
2023-05-21T22:18:02.466Z,17.18
2023-05-21T22:20:31.059Z,17.16
2023-05-21T22:23:00.877Z,17.07
2023-05-21T22:25:29.169Z,17.24
2023-05-21T22:27:57.462Z,17.16
2023-05-21T22:30:25.785Z,17.09
2023-05-21T22:32:54.190Z,17.03
2023-05-21T22:35:22.452Z,16.77
2023-05-21T22:37:50.883Z,16.83
2023-05-21T22:40:20.753Z,16.97
2023-05-21T22:42:49.343Z,16.88
2023-05-21T22:45:19.078Z,16.87
2023-05-21T22:47:48.303Z,16.90
2023-05-21T22:50:16.792Z,16.96
2023-05-21T22:52:45.210Z,16.94
2023-05-21T22:55:13.519Z,16.95
2023-05-21T22:57:43.341Z,16.99
2023-05-21T23:00:12.466Z,17.02
2023-05-21T23:02:40.927Z,16.91
2023-05-21T23:05:10.031Z,16.98
2023-05-21T23:07:38.405Z,16.92
2023-05-21T23:10:07.416Z,16.61
2023-05-21T23:12:35.801Z,16.83
2023-05-21T23:15:07.518Z,16.78
2023-05-21T23:17:36.115Z,16.77
2023-05-21T23:20:04.444Z,16.81
2023-05-21T23:22:32.854Z,16.80
2023-05-21T23:25:01.194Z,16.79
2023-05-21T23:27:29.585Z,16.79
2023-05-21T23:29:57.884Z,16.74
2023-05-21T23:32:27.653Z,16.81
2023-05-21T23:34:57.153Z,16.73
2023-05-21T23:37:25.442Z,16.62
2023-05-21T23:39:53.954Z,16.59
2023-05-21T23:42:22.255Z,16.58
2023-05-21T23:44:50.433Z,16.54
2023-05-21T23:47:18.598Z,16.62
2023-05-21T23:49:48.256Z,16.42
2023-05-21T23:52:17.452Z,16.42
2023-05-21T23:54:45.655Z,16.45
2023-05-21T23:57:14.476Z,16.34
2023-05-21T23:59:42.750Z,16.27
